Terminal Aerodrome Forecast
Issued by NWS

Home | Current Version | Previous Version | Text Only | Print | Product List | Glossary Off
Versions: 1 2 3 4 5 6 7 8 9 10 11 12 13 14

423
FTUS43 KBIS 170537
TAFDIK
TAF
KDIK 170537Z 1706/1806 21012KT P6SM SKC
     FM171000 25014KT P6SM SKC
     FM171600 28018KT P6SM SKC
     FM180200 24012KT P6SM SCT250=

USA.gov is the U.S. government's official web portal to all federal, state and local government web resources and services.